Time;durP1;ratioP1;P1;durP2;ratioP2;P2;SDS_P1;SDS_P2;PMS_P1;PMS_P2;Temp;Humidity;BMP_temperature;BMP_pressure;BME280_temperature;BME280_humidity;BME280_pressure;Samples;Min_cycle;Max_cycle;Signal;HPM_P1;HPM_P2
2021/12/18 00:04:20;;;;;;;16.48;5.95;;;;;;;7.09;95.18;104015.50;10457692;28;20086;-82
2021/12/18 00:09:22;;;;;;;14.57;5.90;;;;;;;7.12;94.80;104004.59;10440958;28;20068;-82
2021/12/18 00:14:24;;;;;;;19.27;5.70;;;;;;;7.05;95.53;104017.63;10475952;28;20055;-82
2021/12/18 00:19:27;;;;;;;18.48;5.60;;;;;;;7.10;95.08;104016.41;10470230;28;20044;-82
2021/12/18 00:24:28;;;;;;;18.73;6.03;;;;;;;7.00;95.32;104019.78;10470427;28;20551;-82
2021/12/18 00:29:30;;;;;;;17.23;5.80;;;;;;;7.17;95.61;104018.75;10460630;28;20043;-82
2021/12/18 00:34:32;;;;;;;12.55;5.72;;;;;;;7.02;95.12;104018.25;10452297;28;20048;-82
2021/12/18 00:39:42;;;;;;;14.02;6.32;;;;;;;6.99;95.71;104016.34;10452408;28;20109;-82
2021/12/18 00:44:44;;;;;;;17.23;6.25;;;;;;;6.99;96.25;104013.75;10473983;28;20446;-82
2021/12/18 00:49:46;;;;;;;17.88;6.45;;;;;;;7.01;95.76;104015.56;10474179;28;20139;-82
2021/12/18 00:54:48;;;;;;;15.18;6.38;;;;;;;6.95;95.99;104005.66;10463847;28;20048;-81
2021/12/18 00:59:52;;;;;;;17.70;6.50;;;;;;;6.98;95.77;104001.72;10444708;28;20496;-82
2021/12/18 01:04:54;;;;;;;15.80;7.03;;;;;;;7.03;96.19;104002.13;10474582;28;20048;-82
2021/12/18 01:10:05;;;;;;;22.60;7.50;;;;;;;7.14;96.38;103995.41;10452370;28;20044;-82
2021/12/18 01:15:32;;;;;;;19.70;6.95;;;;;;;7.17;95.55;103988.00;10474229;28;20049;-82
2021/12/18 01:25:56;;;;;;;19.20;7.18;;;;;;;7.14;95.48;104003.09;10479039;28;20143;-82
2021/12/18 01:30:59;;;;;;;17.35;6.50;;;;;;;7.18;95.54;104000.06;10465477;28;20063;-82
2021/12/18 01:36:01;;;;;;;25.52;7.38;;;;;;;7.10;95.43;104011.28;10491281;28;20040;-82
2021/12/18 01:41:03;;;;;;;19.50;7.38;;;;;;;7.10;95.87;104006.16;10460861;28;20408;-82
2021/12/18 01:56:41;;;;;;;21.63;7.60;;;;;;;7.07;95.12;104000.75;10475175;28;20079;-82
2021/12/18 02:01:43;;;;;;;17.70;7.18;;;;;;;7.06;95.38;104006.63;10451105;28;20051;-81
2021/12/18 02:06:45;;;;;;;21.05;7.55;;;;;;;7.15;95.90;103999.78;10477503;28;20036;-82
2021/12/18 02:11:46;;;;;;;16.23;7.05;;;;;;;7.15;95.56;103992.06;10469272;28;20102;-82
2021/12/18 02:22:10;;;;;;;21.42;6.88;;;;;;;7.02;95.89;103995.19;10455781;28;20091;-81
2021/12/18 02:27:12;;;;;;;20.38;6.97;;;;;;;7.09;96.38;103983.84;10475456;28;20047;-82
2021/12/18 02:32:20;;;;;;;17.88;6.80;;;;;;;7.18;95.74;103979.53;10483320;28;20325;-82
2021/12/18 02:37:24;;;;;;;17.38;7.13;;;;;;;7.08;95.82;103982.03;10472544;28;20094;-82
2021/12/18 02:42:27;;;;;;;18.50;7.35;;;;;;;7.02;96.42;103981.50;10466049;28;20049;-81
2021/12/18 02:47:29;;;;;;;20.77;6.70;;;;;;;7.06;96.15;103981.00;10470965;28;20052;-81
2021/12/18 02:52:31;;;;;;;22.92;7.65;;;;;;;7.05;96.36;103977.53;10451034;28;20811;-81
2021/12/18 02:57:36;;;;;;;25.85;7.63;;;;;;;7.01;96.42;103979.69;10472502;28;20052;-82
2021/12/18 03:02:44;;;;;;;18.73;6.95;;;;;;;6.92;96.53;103983.22;10473677;28;20037;-82
2021/12/18 03:07:47;;;;;;;20.08;6.60;;;;;;;6.85;96.92;103973.16;10469791;28;20058;-81
2021/12/18 03:23:36;;;;;;;13.60;4.78;;;;;;;6.68;97.56;103971.63;10490271;28;20498;-81
2021/12/18 03:28:41;;;;;;;12.23;4.80;;;;;;;6.64;97.24;103961.84;10457295;28;20091;-81
2021/12/18 03:33:43;;;;;;;15.07;4.55;;;;;;;6.59;97.35;103979.38;10487092;28;20040;-82
2021/12/18 03:38:44;;;;;;;15.30;4.65;;;;;;;6.56;97.21;103978.19;10483654;28;20564;-81
2021/12/18 03:43:46;;;;;;;10.55;4.00;;;;;;;6.53;97.02;103978.81;10470201;28;20045;-81
2021/12/18 03:48:48;;;;;;;12.00;4.20;;;;;;;6.53;97.66;103978.81;10475026;28;20053;-82
2021/12/18 03:53:49;;;;;;;13.30;3.53;;;;;;;6.57;96.80;103975.78;10470399;28;20048;-81
2021/12/18 03:58:52;;;;;;;12.38;3.45;;;;;;;6.51;96.98;103965.88;10451027;28;20052;-81
2021/12/18 04:03:54;;;;;;;11.25;3.85;;;;;;;6.62;97.33;103964.28;10472550;28;20044;-82
2021/12/18 04:08:57;;;;;;;11.00;3.75;;;;;;;6.47;97.16;103968.00;10466216;28;20052;-81
2021/12/18 04:13:58;;;;;;;13.20;4.32;;;;;;;6.44;97.82;103967.75;10486472;28;20048;-81
2021/12/18 04:19:03;;;;;;;18.77;4.00;;;;;;;6.35;97.72;103973.81;10457556;28;20079;-81
2021/12/18 04:24:08;;;;;;;13.15;4.07;;;;;;;6.30;97.66;103966.44;10464575;28;20140;-81
2021/12/18 04:29:09;;;;;;;16.30;4.70;;;;;;;6.30;97.62;103967.34;10487681;28;20044;-81
2021/12/18 04:34:11;;;;;;;15.73;4.40;;;;;;;6.25;97.69;103978.81;10490459;28;20040;-81
2021/12/18 04:39:13;;;;;;;18.60;4.57;;;;;;;6.28;98.45;103971.44;10483372;28;20427;-81
2021/12/18 04:44:15;;;;;;;15.40;4.70;;;;;;;6.24;98.32;103973.56;10469556;28;20448;-81
2021/12/18 04:49:16;;;;;;;14.13;3.55;;;;;;;6.16;98.07;103970.28;10450512;28;20046;-81
2021/12/18 04:54:18;;;;;;;19.33;3.47;;;;;;;6.14;98.54;103966.69;10467277;28;20049;-81
2021/12/18 04:59:21;;;;;;;14.32;3.50;;;;;;;6.09;98.27;103958.59;10489608;28;20048;-81
2021/12/18 05:04:23;;;;;;;12.15;3.03;;;;;;;6.06;98.61;103976.19;10483129;28;20510;-81
2021/12/18 05:09:25;;;;;;;8.93;2.70;;;;;;;5.99;97.88;103972.19;10447515;28;20041;-81
2021/12/18 05:14:26;;;;;;;9.05;2.40;;;;;;;5.79;97.75;103974.47;10445783;28;20048;-81
2021/12/18 05:19:28;;;;;;;5.43;1.98;;;;;;;5.76;97.88;103977.63;10467635;28;20570;-80
2021/12/18 05:24:30;;;;;;;8.20;2.20;;;;;;;5.80;97.89;103972.06;10456319;28;20044;-81
2021/12/18 05:29:32;;;;;;;6.63;2.15;;;;;;;5.83;98.03;103974.00;10464459;28;20052;-81
2021/12/18 05:34:37;;;;;;;6.47;2.22;;;;;;;5.81;97.89;103978.06;10473302;28;20041;-81
2021/12/18 05:39:39;;;;;;;8.27;1.98;;;;;;;5.88;98.39;103972.78;10466576;28;20159;-81
2021/12/18 05:44:41;;;;;;;6.55;2.08;;;;;;;5.80;98.27;103973.72;10459828;28;20196;-81
2021/12/18 05:49:43;;;;;;;6.18;2.20;;;;;;;5.87;98.05;103973.53;10465432;28;20055;-81
2021/12/18 05:54:44;;;;;;;8.73;2.33;;;;;;;5.83;98.36;103967.22;10459136;28;20431;-81
2021/12/18 05:59:46;;;;;;;4.85;1.85;;;;;;;5.72;98.07;103971.31;10447997;28;20049;-81
2021/12/18 06:04:48;;;;;;;4.20;1.23;;;;;;;5.59;97.91;103973.47;10471626;28;20044;-81
2021/12/18 06:09:50;;;;;;;7.63;1.58;;;;;;;5.60;98.15;103977.84;10477770;28;20045;-81
2021/12/18 06:14:52;;;;;;;5.47;1.50;;;;;;;5.56;97.97;103983.41;10460654;28;20052;-81
2021/12/18 06:19:54;;;;;;;4.63;1.50;;;;;;;5.55;98.49;103981.59;10459750;28;20048;-81
2021/12/18 06:24:55;;;;;;;5.25;1.40;;;;;;;5.52;97.95;103986.44;10476710;28;20053;-81
2021/12/18 06:29:58;;;;;;;8.57;1.70;;;;;;;5.49;98.25;103981.91;10453729;28;20127;-81
2021/12/18 06:34:59;;;;;;;5.57;1.45;;;;;;;5.44;98.12;103984.78;10465012;28;20056;-80
2021/12/18 06:40:03;;;;;;;5.50;1.23;;;;;;;5.31;97.97;103991.28;10453041;28;20037;-81
2021/12/18 06:45:11;;;;;;;;;;;;;;;5.26;98.42;104007.78;10467793;28;20045;-81
2021/12/18 06:50:13;;;;;;;4.05;1.17;;;;;;;5.09;97.95;104008.72;10482254;28;19927;-81
2021/12/18 06:55:16;;;;;;;4.03;1.13;;;;;;;5.05;98.39;104010.06;10486748;28;20056;-81
2021/12/18 07:00:19;;;;;;;4.00;1.20;;;;;;;5.06;98.20;103998.19;10449535;28;20041;-81
2021/12/18 07:05:21;;;;;;;3.28;1.08;;;;;;;5.05;98.42;104001.50;10479402;28;20492;-81
2021/12/18 07:10:23;;;;;;;3.47;1.10;;;;;;;5.04;97.77;104010.81;10469930;28;20041;-81
2021/12/18 07:15:24;;;;;;;3.90;1.10;;;;;;;5.10;98.13;104014.75;10451363;28;20048;-81
2021/12/18 07:20:27;;;;;;;4.20;1.48;;;;;;;5.06;98.54;104009.31;10482789;28;20045;-81
2021/12/18 07:25:29;;;;;;;5.78;1.38;;;;;;;5.10;98.42;104005.41;10473209;28;20052;-81
2021/12/18 07:30:31;;;;;;;4.32;1.77;;;;;;;5.06;97.96;104013.53;10488735;28;20048;-80
2021/12/18 07:35:33;;;;;;;3.90;1.45;;;;;;;4.98;98.15;104000.00;10484413;28;20044;-81
2021/12/18 07:40:35;;;;;;;4.85;1.75;;;;;;;4.90;97.91;104001.78;10469432;28;20044;-80
2021/12/18 07:45:37;;;;;;;4.13;1.80;;;;;;;4.87;98.20;104005.69;10473104;28;20443;-80
2021/12/18 07:50:38;;;;;;;7.05;2.05;;;;;;;4.85;97.72;104004.63;10466051;28;20041;-80
2021/12/18 07:55:40;;;;;;;6.53;1.25;;;;;;;4.81;98.31;104000.88;10474567;28;20049;-80
2021/12/18 08:00:42;;;;;;;4.57;1.27;;;;;;;4.86;97.98;104003.91;10453592;28;20036;-80
2021/12/18 08:05:44;;;;;;;4.40;1.55;;;;;;;4.92;97.89;104004.50;10465216;28;20071;-81
2021/12/18 08:10:47;;;;;;;4.53;1.40;;;;;;;4.93;98.23;104001.19;10467737;28;20044;-80
2021/12/18 08:15:49;;;;;;;5.32;1.23;;;;;;;4.93;97.78;103998.63;10484026;28;20047;-81
2021/12/18 08:20:51;;;;;;;4.38;1.63;;;;;;;4.93;98.02;104002.09;10474571;28;20514;-81
2021/12/18 08:25:53;;;;;;;4.50;1.55;;;;;;;4.99;97.44;104006.91;10469573;28;20055;-80
2021/12/18 08:30:55;;;;;;;4.75;1.55;;;;;;;5.03;97.76;104001.31;10462055;28;20483;-81
2021/12/18 08:35:56;;;;;;;3.63;1.27;;;;;;;5.02;98.09;104002.09;10447258;28;20048;-81
2021/12/18 08:40:58;;;;;;;3.03;1.10;;;;;;;5.10;97.32;104000.28;10470580;28;20044;-81
2021/12/18 08:45:59;;;;;;;5.47;1.10;;;;;;;5.09;98.20;103998.47;10468229;28;20457;-81
2021/12/18 08:51:02;;;;;;;2.75;0.90;;;;;;;4.91;97.33;104002.69;10483004;28;20064;-80
2021/12/18 08:56:04;;;;;;;2.65;1.10;;;;;;;5.00;97.85;103998.50;10454192;28;20056;-81
2021/12/18 09:01:06;;;;;;;3.13;1.15;;;;;;;4.82;97.17;103994.09;10480256;28;20480;-80
2021/12/18 09:06:08;;;;;;;2.72;1.00;;;;;;;4.82;96.90;103992.47;10464364;28;20575;-81
2021/12/18 09:11:09;;;;;;;4.70;1.10;;;;;;;4.84;97.23;103995.16;10465376;28;20044;-81
2021/12/18 09:16:11;;;;;;;5.10;1.42;;;;;;;4.86;97.12;103993.66;10471122;28;20056;-81
2021/12/18 09:21:13;;;;;;;4.22;1.50;;;;;;;4.87;97.39;103998.03;10467049;28;20041;-81
2021/12/18 09:26:15;;;;;;;4.30;1.60;;;;;;;4.97;97.33;104000.72;10469712;28;20049;-81
2021/12/18 09:31:17;;;;;;;4.10;1.27;;;;;;;5.15;97.21;104004.19;10471513;28;20483;-82
2021/12/18 09:36:22;;;;;;;3.95;1.20;;;;;;;4.97;96.68;104003.28;10457958;28;20410;-81
2021/12/18 09:41:24;;;;;;;3.58;0.98;;;;;;;5.01;96.46;104010.53;10455000;28;20071;-81
2021/12/18 09:46:30;;;;;;;4.38;1.10;;;;;;;4.96;95.92;104009.13;10494477;28;20048;-81
2021/12/18 09:51:32;;;;;;;5.93;1.40;;;;;;;5.10;95.12;104009.63;10475934;28;20043;-81
2021/12/18 09:56:34;;;;;;;4.70;1.52;;;;;;;5.26;95.05;103996.69;10487540;28;20049;-81
2021/12/18 10:01:36;;;;;;;8.18;1.20;;;;;;;5.14;94.73;103999.81;10472927;28;20041;-81
2021/12/18 10:06:44;;;;;;;2.78;1.25;;;;;;;5.18;95.02;103999.41;10487782;28;20044;-81
2021/12/18 10:11:49;;;;;;;6.82;1.58;;;;;;;5.21;95.01;103993.66;10486815;28;20049;-81
2021/12/18 10:16:52;;;;;;;3.83;1.50;;;;;;;5.01;95.01;103986.59;10485700;28;20055;-82
2021/12/18 10:22:08;;;;;;;6.15;1.73;;;;;;;4.93;95.69;103985.88;10473365;28;20516;-81
2021/12/18 10:27:19;;;;;;;5.95;2.00;;;;;;;4.98;96.05;103986.31;10448737;28;20060;-81
2021/12/18 10:32:24;;;;;;;5.07;1.90;;;;;;;4.90;96.37;103986.47;10472947;28;20487;-81
2021/12/18 10:37:28;;;;;;;5.40;1.75;;;;;;;4.92;96.74;103984.06;10487406;28;20559;-81
2021/12/18 10:42:42;;;;;;;6.82;2.03;;;;;;;5.11;97.41;103980.72;10457088;28;20076;-81
2021/12/18 10:47:51;;;;;;;6.80;1.95;;;;;;;5.12;96.73;103967.22;10487325;28;20044;-81
2021/12/18 10:53:08;;;;;;;3.77;1.70;;;;;;;5.21;96.89;103968.13;10475169;28;20048;-81
2021/12/18 10:58:27;;;;;;;5.47;2.47;;;;;;;5.52;96.42;103955.72;10475797;28;20126;-81
2021/12/18 11:03:28;;;;;;;6.65;2.00;;;;;;;5.64;95.51;103962.00;10458517;28;20254;-81
2021/12/18 11:08:32;;;;;;;5.60;1.83;;;;;;;5.69;95.40;103958.25;10460428;28;20546;-82
2021/12/18 11:13:45;;;;;;;4.05;1.73;;;;;;;5.70;94.18;103946.34;10471372;28;20060;-82
2021/12/18 11:18:47;;;;;;;4.53;1.65;;;;;;;5.62;94.68;103935.38;10471700;28;20170;-81
2021/12/18 11:24:01;;;;;;;6.35;2.10;;;;;;;5.47;94.04;103936.50;10472160;28;20053;-81
2021/12/18 11:29:04;;;;;;;6.70;2.38;;;;;;;5.74;94.62;103932.19;10468972;28;20060;-81
2021/12/18 11:34:06;;;;;;;3.15;1.45;;;;;;;5.65;93.71;103928.00;10471545;28;20048;-81
2021/12/18 11:39:09;;;;;;;7.03;1.92;;;;;;;5.76;94.41;103925.56;10471698;28;20075;-81
2021/12/18 11:44:41;;;;;;;4.70;1.83;;;;;;;5.62;93.58;103916.59;10487385;28;20492;-80
2021/12/18 11:49:43;;;;;;;5.85;1.83;;;;;;;5.54;93.74;103919.31;10469119;28;20796;-81
2021/12/18 11:54:58;;;;;;;4.53;1.88;;;;;;;5.53;94.81;103906.41;10479327;28;20575;-80
2021/12/18 12:00:00;;;;;;;4.28;1.70;;;;;;;5.58;94.60;103902.59;10485217;28;20049;-81
2021/12/18 12:05:05;;;;;;;5.18;1.60;;;;;;;5.53;94.11;103908.94;10472240;28;20059;-80
2021/12/18 12:10:20;;;;;;;3.05;1.17;;;;;;;5.59;94.41;103906.97;10489665;28;20041;-80
2021/12/18 12:15:26;;;;;;;4.32;1.13;;;;;;;5.76;94.34;103906.00;10479307;28;20037;-81
2021/12/18 12:20:36;;;;;;;5.85;1.55;;;;;;;5.70;94.11;103901.19;10487302;28;20040;-80
2021/12/18 12:25:45;;;;;;;2.60;1.00;;;;;;;5.77;94.15;103896.69;10482767;28;20541;-80
2021/12/18 12:30:59;;;;;;;4.07;1.00;;;;;;;6.10;93.29;103892.91;10452076;28;20048;-81
2021/12/18 12:36:06;;;;;;;2.95;1.17;;;;;;;6.12;93.24;103891.41;10481086;28;20416;-81
2021/12/18 12:41:25;;;;;;;4.70;1.90;;;;;;;6.22;93.40;103878.66;10467739;28;20045;-82
2021/12/18 12:46:31;;;;;;;4.73;1.77;;;;;;;6.02;93.30;103875.19;10463545;28;20051;-81
2021/12/18 12:51:58;;;;;;;4.57;1.83;;;;;;;6.25;93.41;103875.53;10485318;28;20430;-81
2021/12/18 12:57:39;;;;;;;3.33;1.40;;;;;;;6.19;93.75;103868.16;10483361;28;20053;-81
2021/12/18 13:02:58;;;;;;;3.03;1.20;;;;;;;6.23;93.17;103867.69;10465658;28;20045;-81
2021/12/18 13:08:02;;;;;;;5.78;1.40;;;;;;;6.20;93.24;103854.63;10461416;28;20105;-81
2021/12/18 13:13:09;;;;;;;3.15;1.40;;;;;;;6.35;93.12;103852.53;10483176;28;20045;-81
2021/12/18 13:18:11;;;;;;;3.92;1.40;;;;;;;6.25;93.08;103850.81;10480811;28;20047;-81
2021/12/18 13:23:17;;;;;;;3.70;1.17;;;;;;;6.32;92.64;103845.47;10456809;28;20090;-81
2021/12/18 13:28:21;;;;;;;3.03;1.50;;;;;;;6.14;93.85;103838.69;10450627;28;20071;-81
2021/12/18 13:33:27;;;;;;;3.97;1.45;;;;;;;6.14;93.78;103828.47;10457757;28;20045;-81
2021/12/18 13:38:38;;;;;;;2.10;1.27;;;;;;;6.21;93.65;103830.81;10466357;28;20136;-81
2021/12/18 13:43:41;;;;;;;4.10;1.60;;;;;;;6.20;93.84;103823.91;10481156;28;20094;-82
2021/12/18 13:48:47;;;;;;;5.40;1.70;;;;;;;6.27;93.75;103816.00;10445584;28;20441;-82
2021/12/18 13:53:55;;;;;;;4.90;2.15;;;;;;;6.25;93.80;103812.41;10451815;28;20048;-82
2021/12/18 13:58:59;;;;;;;4.97;2.10;;;;;;;6.28;93.93;103815.25;10477361;28;20155;-82
2021/12/18 14:04:05;;;;;;;4.45;2.13;;;;;;;6.28;93.96;103817.81;10465000;28;20040;-82
2021/12/18 14:09:31;;;;;;;5.35;2.47;;;;;;;6.17;93.89;103809.16;10474535;28;20045;-83
2021/12/18 14:14:34;;;;;;;6.25;3.00;;;;;;;6.24;93.96;103809.72;10499819;28;20423;-82
2021/12/18 14:19:43;;;;;;;6.97;2.63;;;;;;;6.19;93.90;103806.72;10463831;28;20136;-82
2021/12/18 14:24:45;;;;;;;5.25;2.58;;;;;;;6.24;94.08;103808.03;10464321;28;20040;-82
2021/12/18 14:29:54;;;;;;;4.88;2.80;;;;;;;6.29;94.50;103804.22;10447164;28;20049;-82
2021/12/18 14:35:04;;;;;;;6.77;3.13;;;;;;;6.28;94.06;103806.66;10452525;28;20056;-82
2021/12/18 14:40:15;;;;;;;8.38;4.10;;;;;;;6.25;94.17;103796.16;10464160;28;20049;-82
2021/12/18 14:45:30;;;;;;;6.45;3.47;;;;;;;6.23;94.25;103803.66;10450019;28;20135;-82
2021/12/18 14:50:36;;;;;;;8.02;3.63;;;;;;;6.15;94.79;103804.63;10443288;28;20099;-81
2021/12/18 14:55:43;;;;;;;7.82;3.90;;;;;;;6.22;94.53;103812.09;10423709;28;20408;-82
2021/12/18 15:00:54;;;;;;;7.97;4.30;;;;;;;6.17;94.89;103811.72;10457573;28;20045;-82
2021/12/18 15:06:07;;;;;;;9.98;4.25;;;;;;;6.17;95.28;103813.34;10454369;28;20052;-82
2021/12/18 15:11:20;;;;;;;7.57;4.20;;;;;;;6.14;95.41;103818.22;10472101;28;20033;-82
2021/12/18 15:16:28;;;;;;;10.25;5.18;;;;;;;6.14;95.45;103813.97;10482274;28;20043;-82
2021/12/18 15:21:31;;;;;;;9.52;5.70;;;;;;;6.17;95.54;103824.53;10438292;28;20053;-82
2021/12/18 15:26:34;;;;;;;11.68;5.65;;;;;;;6.16;95.06;103824.34;10473753;28;20048;-82
2021/12/18 15:31:36;;;;;;;12.95;5.78;;;;;;;6.14;95.24;103828.47;10466801;28;20040;-81
2021/12/18 15:36:44;;;;;;;13.40;5.72;;;;;;;6.17;95.61;103824.53;10463815;28;20045;-82
2021/12/18 15:41:46;;;;;;;16.63;7.43;;;;;;;6.20;95.28;103813.66;10492784;28;20049;-82
2021/12/18 15:46:49;;;;;;;13.20;6.82;;;;;;;6.22;95.40;103811.22;10489059;28;20041;-81
2021/12/18 15:51:50;;;;;;;15.10;7.28;;;;;;;6.24;95.31;103805.47;10439423;28;20045;-81
2021/12/18 15:56:52;;;;;;;19.25;7.20;;;;;;;6.10;95.74;103799.13;10446328;28;20053;-81
2021/12/18 16:01:54;;;;;;;18.08;7.15;;;;;;;6.19;95.64;103809.28;10475703;28;20032;-81
2021/12/18 16:06:55;;;;;;;13.02;6.82;;;;;;;6.18;95.74;103815.16;10472757;28;20037;-81
2021/12/18 16:11:57;;;;;;;13.70;6.90;;;;;;;6.18;95.93;103804.91;10460890;28;20052;-81
2021/12/18 16:16:59;;;;;;;15.95;7.65;;;;;;;6.17;96.22;103806.59;10469412;28;20491;-81
2021/12/18 16:22:01;;;;;;;14.35;7.30;;;;;;;6.13;96.39;103806.19;10429850;28;20091;-81
2021/12/18 16:27:03;;;;;;;16.60;8.93;;;;;;;6.13;96.39;103801.94;10479250;28;20404;-81
2021/12/18 16:32:05;;;;;;;19.23;8.52;;;;;;;6.18;96.04;103804.91;10491992;28;20043;-81
2021/12/18 16:37:08;;;;;;;22.00;8.85;;;;;;;6.22;95.91;103804.44;10466563;28;20048;-81
2021/12/18 16:42:10;;;;;;;18.30;7.85;;;;;;;6.23;96.37;103793.44;10488540;28;20048;-81
2021/12/18 16:47:13;;;;;;;19.10;8.20;;;;;;;6.19;96.63;103799.03;10456158;28;20036;-81
2021/12/18 16:52:15;;;;;;;20.65;8.52;;;;;;;6.26;96.55;103798.84;10452171;28;20043;-81
2021/12/18 16:57:17;;;;;;;20.40;9.10;;;;;;;6.27;96.68;103789.47;10473272;28;20067;-81
2021/12/18 17:02:19;;;;;;;20.08;9.50;;;;;;;6.26;96.25;103793.72;10447685;28;20511;-81
2021/12/18 17:07:20;;;;;;;23.83;9.80;;;;;;;6.26;96.33;103788.59;10469882;28;20049;-81
2021/12/18 17:12:40;;;;;;;19.38;9.18;;;;;;;6.23;96.27;103796.00;10450847;28;20045;-81
2021/12/18 17:17:41;;;;;;;20.13;9.65;;;;;;;6.22;96.70;103793.31;10459282;28;20052;-81
2021/12/18 17:22:44;;;;;;;22.73;9.82;;;;;;;6.25;96.89;103791.03;10453150;28;20079;-81
2021/12/18 17:27:47;;;;;;;30.83;9.68;;;;;;;6.32;96.77;103785.69;10475306;28;20040;-81
2021/12/18 17:32:48;;;;;;;23.88;9.27;;;;;;;6.27;96.59;103782.72;10469697;28;20044;-81
2021/12/18 17:37:50;;;;;;;23.55;10.27;;;;;;;6.23;97.08;103792.53;10471577;28;20060;-81
2021/12/18 17:42:54;;;;;;;25.77;10.25;;;;;;;6.33;96.80;103780.72;10474645;28;20054;-81
2021/12/18 17:47:56;;;;;;;24.20;9.63;;;;;;;6.38;96.35;103778.56;10435239;28;20045;-81
2021/12/18 17:52:58;;;;;;;21.02;9.40;;;;;;;6.39;96.55;103784.56;10446662;28;20051;-81
2021/12/18 17:58:04;;;;;;;19.40;9.05;;;;;;;6.38;96.42;103787.88;10482722;28;20060;-81
2021/12/18 18:03:05;;;;;;;20.58;9.50;;;;;;;6.36;96.76;103790.31;10481877;28;20045;-81
2021/12/18 18:08:07;;;;;;;21.13;10.40;;;;;;;6.23;96.52;103783.19;10473961;28;20060;-81
2021/12/18 18:13:11;;;;;;;23.98;10.85;;;;;;;6.25;96.56;103797.03;10455757;28;20116;-81
2021/12/18 18:18:13;;;;;;;26.27;10.98;;;;;;;6.34;97.04;103791.84;10465055;28;20055;-81
2021/12/18 18:23:15;;;;;;;27.95;10.95;;;;;;;6.37;96.37;103793.78;10464991;28;20052;-81
2021/12/18 18:28:17;;;;;;;23.40;10.82;;;;;;;6.36;96.60;103785.19;10462828;28;20064;-81
2021/12/18 18:33:19;;;;;;;22.42;10.70;;;;;;;6.31;96.56;103782.22;10473738;28;20052;-81
2021/12/18 18:38:22;;;;;;;24.23;11.27;;;;;;;6.34;96.53;103777.38;10482124;28;20048;-81
2021/12/18 18:43:31;;;;;;;25.33;10.45;;;;;;;6.29;96.92;103768.38;10457807;28;20444;-81
2021/12/18 18:48:35;;;;;;;29.33;12.00;;;;;;;6.33;97.03;103757.66;10458234;28;20077;-81
2021/12/18 18:53:37;;;;;;;27.77;11.35;;;;;;;6.32;96.55;103750.72;10457727;28;20037;-81
2021/12/18 18:58:39;;;;;;;27.48;11.50;;;;;;;6.31;96.82;103751.50;10451521;28;20040;-81
2021/12/18 19:03:41;;;;;;;27.48;11.15;;;;;;;6.33;96.18;103744.84;10461027;28;20037;-81
2021/12/18 19:08:43;;;;;;;24.33;10.75;;;;;;;6.33;96.30;103734.63;10468729;28;20128;-81
2021/12/18 19:13:44;;;;;;;26.48;11.93;;;;;;;6.24;96.57;103744.03;10460786;28;20056;-81
2021/12/18 19:19:00;;;;;;;28.27;12.48;;;;;;;6.25;96.70;103735.59;10456512;28;20076;-81
2021/12/18 19:24:02;;;;;;;31.23;11.65;;;;;;;6.23;96.54;103731.97;10467076;28;20044;-81
2021/12/18 19:29:04;;;;;;;28.13;11.73;;;;;;;6.24;96.60;103731.22;10457521;28;20049;-81
2021/12/18 19:34:06;;;;;;;25.55;12.02;;;;;;;6.21;96.49;103730.97;10469024;28;20503;-81
2021/12/18 19:39:11;;;;;;;27.08;11.75;;;;;;;6.23;96.99;103729.41;10455274;28;20121;-81
2021/12/18 19:44:13;;;;;;;29.42;11.68;;;;;;;6.21;96.88;103722.38;10495775;28;20480;-81
2021/12/18 19:49:15;;;;;;;26.42;11.10;;;;;;;6.18;96.96;103717.88;10473021;28;20504;-80
2021/12/18 19:54:17;;;;;;;28.30;10.60;;;;;;;6.21;97.05;103710.50;10427230;28;20084;-81
2021/12/18 19:59:21;;;;;;;23.10;10.05;;;;;;;6.17;96.47;103706.75;10467345;28;20056;-81
2021/12/18 20:04:32;;;;;;;27.27;9.55;;;;;;;6.16;96.48;103714.28;10442101;28;20045;-81
2021/12/18 20:09:36;;;;;;;22.58;9.20;;;;;;;6.10;96.63;103713.72;10447545;28;20068;-81
2021/12/18 20:14:38;;;;;;;19.15;8.00;;;;;;;6.08;96.06;103715.25;10463506;28;20480;-81
2021/12/18 20:19:40;;;;;;;17.15;7.68;;;;;;;6.06;96.15;103717.69;10452632;28;20460;-81
2021/12/18 20:24:42;;;;;;;16.63;6.60;;;;;;;6.00;95.93;103718.03;10460001;28;20060;-81
2021/12/18 20:29:44;;;;;;;11.73;5.28;;;;;;;5.89;95.23;103713.56;10435555;28;20059;-80
2021/12/18 20:34:46;;;;;;;10.90;4.10;;;;;;;5.82;94.42;103701.00;10442781;28;20099;-80
2021/12/18 20:39:47;;;;;;;10.23;3.75;;;;;;;5.75;94.04;103703.75;10474331;28;20052;-80
2021/12/18 20:44:50;;;;;;;11.95;4.65;;;;;;;5.73;94.33;103688.28;10456335;28;20049;-81
2021/12/18 20:49:52;;;;;;;12.75;4.45;;;;;;;5.71;93.76;103698.34;10451950;28;20053;-80
2021/12/18 20:54:53;;;;;;;13.85;4.50;;;;;;;5.69;94.21;103699.88;10461466;28;20040;-81
2021/12/18 20:59:55;;;;;;;13.40;4.78;;;;;;;5.68;94.42;103708.31;10459559;28;20048;-80
2021/12/18 21:04:57;;;;;;;16.35;4.50;;;;;;;5.81;94.77;103688.97;10492767;28;20036;-81
2021/12/18 21:09:59;;;;;;;11.95;4.22;;;;;;;5.77;94.47;103692.00;10469721;28;20052;-80
2021/12/18 21:15:01;;;;;;;13.13;4.80;;;;;;;5.84;94.46;103691.81;10461537;28;20411;-80
2021/12/18 21:20:03;;;;;;;14.32;5.75;;;;;;;5.79;94.04;103687.91;10446624;28;20056;-80
2021/12/18 21:25:05;;;;;;;18.33;5.28;;;;;;;5.85;93.76;103671.47;10456161;28;20491;-81
2021/12/18 21:30:10;;;;;;;16.65;6.38;;;;;;;5.87;93.82;103669.03;10495002;28;20049;-80
2021/12/18 21:40:35;;;;;;;12.60;5.38;;;;;;;6.04;93.23;103675.69;10485185;28;20517;-80
2021/12/18 21:45:37;;;;;;;14.20;5.57;;;;;;;6.03;93.48;103669.69;10452810;28;20048;-81
2021/12/18 21:50:40;;;;;;;19.02;6.78;;;;;;;6.07;94.01;103677.66;10460643;28;20091;-81
2021/12/18 21:55:42;;;;;;;15.75;5.90;;;;;;;6.06;93.90;103666.50;10438398;28;20051;-81
2021/12/18 22:01:11;;;;;;;19.30;6.03;;;;;;;6.01;93.66;103660.06;10483337;28;20043;-81
2021/12/18 22:06:14;;;;;;;16.67;5.57;;;;;;;5.96;94.02;103661.28;10479000;28;20055;-81
2021/12/18 22:11:18;;;;;;;20.48;7.18;;;;;;;5.93;94.15;103659.34;10463360;28;20053;-81
2021/12/18 22:16:20;;;;;;;19.50;7.25;;;;;;;5.83;93.85;103659.28;10464084;28;20036;-81
2021/12/18 22:21:22;;;;;;;19.55;7.65;;;;;;;5.87;94.51;103663.91;10478022;28;20514;-80
2021/12/18 22:26:24;;;;;;;20.65;8.07;;;;;;;5.89;94.62;103662.41;10498988;28;20048;-81
2021/12/18 22:31:27;;;;;;;21.45;7.55;;;;;;;5.86;94.59;103654.44;10477067;28;20047;-80
2021/12/18 22:36:32;;;;;;;20.42;7.93;;;;;;;5.87;94.55;103653.69;10480311;28;20402;-81
2021/12/18 22:41:39;;;;;;;12.93;5.57;;;;;;;5.68;94.51;103649.50;10491836;28;20480;-80
2021/12/18 22:46:42;;;;;;;13.48;5.97;;;;;;;5.54;94.03;103653.34;10474255;28;20435;-80
2021/12/18 22:51:49;;;;;;;9.07;5.07;;;;;;;5.48;94.21;103654.44;10481755;28;20074;-81
2021/12/18 22:56:57;;;;;;;7.68;4.60;;;;;;;5.33;94.37;103647.16;10466372;28;20087;-81
2021/12/18 23:02:01;;;;;;;8.75;4.30;;;;;;;5.16;94.23;103649.84;10477088;28;20060;-80
2021/12/18 23:07:05;;;;;;;8.52;4.38;;;;;;;5.03;94.25;103646.13;10459878;28;20076;-80
2021/12/18 23:12:15;;;;;;;10.05;4.78;;;;;;;5.06;94.71;103648.97;10484204;28;20049;-80
2021/12/18 23:17:35;;;;;;;10.80;5.25;;;;;;;4.97;94.79;103645.56;10485416;28;20396;-80
2021/12/18 23:22:37;;;;;;;13.47;5.23;;;;;;;4.94;95.40;103645.31;10470941;28;20059;-80
2021/12/18 23:27:39;;;;;;;13.77;6.10;;;;;;;4.95;95.02;103647.09;10487673;28;20044;-80
2021/12/18 23:32:41;;;;;;;12.75;6.18;;;;;;;4.94;95.94;103637.63;10481665;28;20043;-81
2021/12/18 23:37:48;;;;;;;16.95;6.57;;;;;;;4.90;95.67;103632.97;10482265;28;20380;-80
2021/12/18 23:42:59;;;;;;;12.98;6.68;;;;;;;4.85;96.29;103624.00;10464250;28;20049;-80
2021/12/18 23:48:06;;;;;;;19.10;7.03;;;;;;;4.71;96.63;103617.59;10463018;28;20131;-80
2021/12/18 23:53:07;;;;;;;15.50;6.95;;;;;;;4.72;97.11;103614.28;10497260;28;20046;-80
2021/12/18 23:58:09;;;;;;;15.60;6.75;;;;;;;4.69;97.07;103607.25;10475155;28;20045;-80
